Time;durP1;ratioP1;P1;durP2;ratioP2;P2;SDS_P1;SDS_P2;PMS_P1;PMS_P2;Temp;Humidity;BMP_temperature;BMP_pressure;BME280_temperature;BME280_humidity;BME280_pressure;Samples;Min_cycle;Max_cycle;Signal;HPM_P1;HPM_P2
2022/10/20 00:02:53;;;;;;;12.18;9.00;;;;;;;13.72;100.00;97890.03;18235565;32;20058;-63
2022/10/20 00:12:56;;;;;;;13.35;9.95;;;;;;;13.78;100.00;97880.72;18234303;32;20477;-63
2022/10/20 00:22:58;;;;;;;11.12;8.75;;;;;;;13.77;100.00;97868.22;18234797;32;20354;-64
2022/10/20 00:33:02;;;;;;;13.18;9.88;;;;;;;13.70;100.00;97857.72;18233305;32;20085;-64
2022/10/20 00:43:11;;;;;;;13.83;9.13;;;;;;;13.76;100.00;97850.31;18233631;32;20390;-63
2022/10/20 00:53:14;;;;;;;15.75;8.93;;;;;;;13.80;100.00;97845.94;18233557;32;20058;-63
2022/10/20 01:03:22;;;;;;;12.13;8.87;;;;;;;13.74;100.00;97844.34;18231862;32;20095;-63
2022/10/20 01:13:48;;;;;;;17.90;10.00;;;;;;;13.62;100.00;97833.88;18232468;32;20092;-64
2022/10/20 01:24:00;;;;;;;11.90;8.75;;;;;;;13.61;100.00;97834.97;18232005;32;20121;-63
2022/10/20 01:34:17;;;;;;;12.37;9.25;;;;;;;13.53;100.00;97839.09;18096965;32;20059;-63
2022/10/20 01:44:23;;;;;;;13.35;9.23;;;;;;;13.46;100.00;97827.75;18096808;32;20066;-63
2022/10/20 01:54:29;;;;;;;12.73;8.63;;;;;;;13.36;100.00;97834.09;18096280;32;20112;-63
2022/10/20 02:04:59;;;;;;;18.23;10.90;;;;;;;13.34;100.00;97830.00;18120485;32;20070;-63
2022/10/20 02:15:03;;;;;;;18.05;11.12;;;;;;;13.34;100.00;97809.06;18233534;32;20462;-64
2022/10/20 02:25:09;;;;;;;19.25;13.10;;;;;;;13.35;100.00;97809.91;18167973;32;20059;-63
2022/10/20 02:35:16;;;;;;;20.50;11.05;;;;;;;13.38;100.00;97788.44;18167738;32;20082;-64
2022/10/20 02:45:18;;;;;;;17.30;12.60;;;;;;;13.45;100.00;97782.66;18154973;32;20413;-63
2022/10/20 02:55:21;;;;;;;18.80;12.48;;;;;;;13.48;100.00;97771.22;18178009;32;20110;-63
2022/10/20 03:05:23;;;;;;;20.10;12.32;;;;;;;13.54;100.00;97775.53;18166468;32;20112;-63
2022/10/20 03:15:26;;;;;;;19.02;12.48;;;;;;;13.51;100.00;97762.53;18165623;32;20075;-63
2022/10/20 03:25:30;;;;;;;19.55;13.15;;;;;;;13.55;100.00;97760.03;18102275;32;20132;-63
2022/10/20 03:35:33;;;;;;;19.37;12.30;;;;;;;13.53;100.00;97745.94;18151817;32;20111;-64
2022/10/20 03:45:35;;;;;;;20.30;13.43;;;;;;;13.53;100.00;97743.22;18164203;32;20450;-64
2022/10/20 03:55:37;;;;;;;16.10;11.85;;;;;;;13.56;100.00;97740.72;18220595;32;20058;-63
2022/10/20 04:05:40;;;;;;;19.27;13.43;;;;;;;13.48;100.00;97732.41;18235711;32;20105;-64
2022/10/20 04:15:42;;;;;;;19.98;13.02;;;;;;;13.41;100.00;97738.16;18235111;32;20062;-63
2022/10/20 04:25:47;;;;;;;22.52;13.70;;;;;;;13.34;100.00;97729.53;18234711;32;20070;-64
2022/10/20 04:35:55;;;;;;;;;;;;;;;13.33;100.00;97720.56;18234197;32;20450;-63
2022/10/20 04:46:05;;;;;;;21.37;15.13;;;;;;;13.41;100.00;97716.44;18161765;32;20317;-63
2022/10/20 04:56:17;;;;;;;25.37;14.98;;;;;;;13.40;100.00;97709.38;18160851;32;20082;-63
2022/10/20 05:06:30;;;;;;;23.38;13.93;;;;;;;13.43;100.00;97708.81;18160651;32;20125;-63
2022/10/20 05:16:33;;;;;;;26.65;15.18;;;;;;;13.34;100.00;97696.94;18161949;32;20115;-63
2022/10/20 05:26:38;;;;;;;26.52;16.08;;;;;;;13.41;100.00;97693.91;18169017;32;20081;-63
2022/10/20 05:36:40;;;;;;;22.95;14.73;;;;;;;13.38;100.00;97703.44;18168545;32;20051;-63
2022/10/20 05:46:43;;;;;;;21.90;13.93;;;;;;;13.43;100.00;97699.84;18168367;32;20056;-63
2022/10/20 05:56:46;;;;;;;17.50;11.30;;;;;;;13.39;100.00;97710.50;18111435;32;20078;-63
2022/10/20 06:06:50;;;;;;;21.20;12.20;;;;;;;13.28;100.00;97711.66;18044910;32;20087;-63
2022/10/20 06:16:54;;;;;;;21.40;13.35;;;;;;;13.26;100.00;97719.28;18044525;32;20064;-63
2022/10/20 06:26:57;;;;;;;17.73;11.40;;;;;;;13.27;100.00;97734.50;18062726;32;20071;-63
2022/10/20 06:37:00;;;;;;;16.58;11.00;;;;;;;13.32;100.00;97751.53;18224451;32;20106;-63
2022/10/20 06:47:09;;;;;;;16.05;10.32;;;;;;;13.44;100.00;97791.91;18238720;32;20054;-63
2022/10/20 06:57:12;;;;;;;13.13;8.30;;;;;;;13.45;100.00;97795.44;18238003;32;20055;-63
2022/10/20 07:07:15;;;;;;;16.60;9.03;;;;;;;13.37;100.00;97824.03;18153923;32;20129;-63
2022/10/20 07:17:19;;;;;;;12.23;9.10;;;;;;;13.33;100.00;97841.97;18166109;32;20187;-63
2022/10/20 07:27:22;;;;;;;11.43;7.43;;;;;;;13.30;100.00;97839.81;18205582;32;20110;-64
2022/10/20 07:37:43;;;;;;;10.75;7.37;;;;;;;13.35;100.00;97837.06;18208432;32;20069;-64
2022/10/20 07:48:03;;;;;;;9.23;6.37;;;;;;;13.50;100.00;97850.53;18236544;32;20106;-63
2022/10/20 07:58:09;;;;;;;9.13;6.75;;;;;;;13.78;100.00;97860.91;18234400;32;20454;-63
2022/10/20 08:08:14;;;;;;;8.23;6.07;;;;;;;14.02;100.00;97871.81;18234173;32;20067;-63
2022/10/20 08:18:21;;;;;;;10.25;6.25;;;;;;;14.33;100.00;97868.75;18162303;32;20105;-64
2022/10/20 08:28:46;;;;;;;11.12;7.18;;;;;;;14.60;100.00;97860.00;18162275;32;20462;-64
2022/10/20 08:38:51;;;;;;;18.55;11.48;;;;;;;15.05;100.00;97857.78;18161855;32;20085;-63
2022/10/20 08:48:57;;;;;;;22.40;13.20;;;;;;;15.75;100.00;97847.94;18221841;32;20442;-63
2022/10/20 08:59:03;;;;;;;15.00;10.02;;;;;;;15.93;100.00;97856.41;18086021;32;20059;-64
2022/10/20 09:09:15;;;;;;;12.07;8.55;;;;;;;15.91;100.00;97869.53;18098167;32;20161;-63
2022/10/20 09:19:22;;;;;;;20.15;12.75;;;;;;;16.03;100.00;97866.31;18098254;32;20456;-64
2022/10/20 09:29:44;;;;;;;21.10;11.40;;;;;;;16.20;100.00;97844.72;18120009;32;20101;-63
2022/10/20 09:39:58;;;;;;;14.43;10.27;;;;;;;16.13;100.00;97821.66;18231473;32;20117;-63
2022/10/20 09:50:17;;;;;;;15.82;11.25;;;;;;;15.96;100.00;97811.34;18230917;32;20051;-61
2022/10/20 10:00:30;;;;;;;14.82;8.85;;;;;;;15.90;100.00;97825.09;18229128;32;20072;-61
2022/10/20 10:10:45;;;;;;;17.48;11.15;;;;;;;16.17;100.00;97798.94;18228990;32;20077;-63
2022/10/20 10:21:12;;;;;;;21.00;12.35;;;;;;;16.47;100.00;97771.31;18228634;32;20070;-64
2022/10/20 10:31:22;;;;;;;20.58;12.52;;;;;;;16.77;100.00;97753.44;18157545;32;20086;-64
2022/10/20 10:41:45;;;;;;;14.05;10.40;;;;;;;17.10;100.00;97747.78;18166512;32;20451;-64
2022/10/20 10:52:25;;;;;;;12.70;9.60;;;;;;;17.33;100.00;97753.25;18167076;32;20078;-63
2022/10/20 11:02:54;;;;;;;18.60;10.68;;;;;;;17.35;100.00;97745.50;18097690;32;20129;-61
2022/10/20 11:13:24;;;;;;;13.93;8.93;;;;;;;17.54;100.00;97775.37;18104011;32;20074;-61
2022/10/20 11:23:44;;;;;;;13.50;9.40;;;;;;;17.73;100.00;97766.94;18091346;32;20075;-61
2022/10/20 11:33:56;;;;;;;9.10;6.32;;;;;;;18.04;100.00;97725.13;18125425;32;20059;-61
2022/10/20 11:44:07;;;;;;;11.48;6.60;;;;;;;18.10;100.00;97740.25;18236546;32;20117;-61
2022/10/20 11:54:22;;;;;;;12.35;7.05;;;;;;;18.37;100.00;97717.28;18235164;32;20110;-61
2022/10/20 12:04:54;;;;;;;14.40;10.43;;;;;;;18.47;97.87;97718.91;18236003;32;20058;-61
2022/10/20 12:15:01;;;;;;;10.73;8.13;;;;;;;18.42;95.87;97710.88;18235469;32;20063;-61
2022/10/20 12:25:06;;;;;;;13.93;8.32;;;;;;;18.38;96.64;97704.41;18234129;32;20517;-61
2022/10/20 12:35:10;;;;;;;11.97;8.27;;;;;;;18.16;96.47;97689.72;18234434;32;20099;-61
2022/10/20 12:45:19;;;;;;;14.27;9.45;;;;;;;18.18;97.08;97684.72;18233810;32;20085;-61
2022/10/20 12:55:34;;;;;;;13.27;9.55;;;;;;;18.20;95.23;97682.50;18233213;32;20094;-61
2022/10/20 13:05:46;;;;;;;13.02;9.75;;;;;;;18.28;93.52;97684.44;18233202;32;20070;-61
2022/10/20 13:15:54;;;;;;;14.68;9.40;;;;;;;18.25;91.56;97678.78;18232533;32;20050;-61
2022/10/20 13:26:04;;;;;;;10.43;7.00;;;;;;;18.10;92.53;97674.56;18232473;32;20107;-61
2022/10/20 13:36:14;;;;;;;9.18;7.30;;;;;;;18.10;96.62;97661.72;18230535;32;20050;-61
2022/10/20 13:47:08;;;;;;;11.98;7.47;;;;;;;18.11;96.58;97646.87;18231487;32;20054;-61
2022/10/20 13:57:29;;;;;;;13.18;8.38;;;;;;;18.12;98.95;97661.41;18280540;32;20074;-61
2022/10/20 14:07:39;;;;;;;10.93;7.65;;;;;;;18.24;100.00;97645.16;18293287;32;20140;-61
2022/10/20 14:17:55;;;;;;;10.02;6.90;;;;;;;18.27;100.00;97638.22;18292625;32;20077;-61
2022/10/20 14:27:59;;;;;;;12.52;6.90;;;;;;;18.25;100.00;97637.72;18281596;32;20092;-61
2022/10/20 14:38:17;;;;;;;9.32;6.93;;;;;;;18.24;100.00;97653.34;18239749;32;20103;-61
2022/10/20 14:48:21;;;;;;;10.27;6.82;;;;;;;18.04;100.00;97646.56;18237746;32;20078;-61
2022/10/20 14:58:53;;;;;;;8.48;5.60;;;;;;;17.77;100.00;97633.94;18238115;32;20061;-61
2022/10/20 15:08:57;;;;;;;10.40;5.57;;;;;;;17.58;100.00;97613.16;18237501;32;20106;-60
2022/10/20 15:19:30;;;;;;;8.07;5.97;;;;;;;17.50;100.00;97613.94;18237171;32;20088;-61
2022/10/20 15:29:33;;;;;;;9.25;6.10;;;;;;;17.46;100.00;97593.81;18237442;32;20249;-61
2022/10/20 15:39:36;;;;;;;9.97;7.70;;;;;;;17.31;100.00;97570.47;18237027;32;20046;-61
2022/10/20 15:49:39;;;;;;;13.90;8.05;;;;;;;17.20;100.00;97591.00;18237252;32;20039;-61
2022/10/20 15:59:42;;;;;;;12.85;8.45;;;;;;;17.03;100.00;97569.84;18234537;32;20395;-60
2022/10/20 16:09:46;;;;;;;12.77;8.33;;;;;;;16.79;100.00;97554.63;18235469;32;20136;-61
2022/10/20 16:19:49;;;;;;;13.55;8.50;;;;;;;16.54;100.00;97570.53;18235318;32;20477;-61
2022/10/20 16:29:52;;;;;;;12.13;7.63;;;;;;;16.39;100.00;97557.25;18221086;32;20095;-61
2022/10/20 16:39:55;;;;;;;13.93;7.90;;;;;;;16.25;100.00;97588.16;18233866;32;20109;-61
2022/10/20 16:49:58;;;;;;;15.73;7.72;;;;;;;16.12;100.00;97564.47;18233763;32;20072;-61
2022/10/20 17:00:01;;;;;;;8.83;6.70;;;;;;;16.07;100.00;97557.22;18233149;32;20351;-61
2022/10/20 17:10:05;;;;;;;13.62;8.40;;;;;;;15.87;100.00;97550.31;18232989;32;20145;-60
2022/10/20 17:20:08;;;;;;;13.43;7.73;;;;;;;15.79;100.00;97567.38;18232599;32;20070;-61
2022/10/20 17:30:12;;;;;;;12.03;8.33;;;;;;;15.74;100.00;97553.84;18232223;32;20122;-61
2022/10/20 17:40:15;;;;;;;12.15;8.20;;;;;;;15.70;100.00;97559.09;18231609;32;20069;-60
2022/10/20 17:50:24;;;;;;;12.43;7.45;;;;;;;15.67;100.00;97564.34;18239568;32;20058;-61
2022/10/20 18:00:27;;;;;;;;;;;;;;;15.56;100.00;97561.84;18227955;32;20058;-61
2022/10/20 18:10:49;;;;;;;12.77;9.13;;;;;;;15.48;100.00;97546.22;18241382;32;20334;-61
2022/10/20 18:20:54;;;;;;;10.82;7.15;;;;;;;15.49;100.00;97527.97;18241026;32;20063;-61
2022/10/20 18:31:06;;;;;;;10.95;7.35;;;;;;;15.45;100.00;97529.69;18240061;32;20396;-61
2022/10/20 18:41:24;;;;;;;14.02;8.88;;;;;;;15.41;100.00;97513.12;18239679;32;20058;-61
2022/10/20 18:51:27;;;;;;;13.95;8.63;;;;;;;15.50;100.00;97502.31;18225363;32;20043;-61
2022/10/20 19:01:32;;;;;;;11.18;8.27;;;;;;;15.57;100.00;97494.53;18238160;32;20058;-61
2022/10/20 19:11:36;;;;;;;13.32;7.97;;;;;;;15.61;100.00;97514.59;18238385;32;20054;-60
2022/10/20 19:21:40;;;;;;;9.35;6.82;;;;;;;15.50;100.00;97511.31;18238521;32;20054;-61
2022/10/20 19:31:51;;;;;;;9.05;6.37;;;;;;;15.32;100.00;97512.22;18237397;32;20085;-62
2022/10/20 19:41:56;;;;;;;9.73;6.62;;;;;;;15.18;100.00;97512.25;18237037;32;20078;-61
2022/10/20 19:52:00;;;;;;;8.98;6.12;;;;;;;15.12;100.00;97511.56;18235269;32;20050;-61
2022/10/20 20:02:03;;;;;;;10.93;5.80;;;;;;;15.06;100.00;97501.84;18235047;32;20121;-61
2022/10/20 20:12:06;;;;;;;9.25;6.22;;;;;;;15.04;100.00;97510.34;18234922;32;20068;-61
2022/10/20 20:22:08;;;;;;;14.82;8.88;;;;;;;15.08;100.00;97494.19;18234433;32;20069;-61
2022/10/20 20:32:10;;;;;;;7.55;5.57;;;;;;;15.16;100.00;97490.78;18234889;32;20058;-61
2022/10/20 20:42:14;;;;;;;9.35;6.28;;;;;;;15.20;100.00;97490.97;18233248;32;20127;-62
2022/10/20 20:52:16;;;;;;;10.73;5.15;;;;;;;15.11;100.00;97503.69;18234181;32;20069;-61
2022/10/20 21:02:19;;;;;;;11.48;7.32;;;;;;;15.04;100.00;97514.97;18233180;32;20115;-62
2022/10/20 21:12:21;;;;;;;10.15;6.62;;;;;;;14.99;100.00;97501.47;18232906;32;20054;-61
2022/10/20 21:22:24;;;;;;;14.75;10.55;;;;;;;15.00;100.00;97516.69;18232444;32;20058;-62
2022/10/20 21:32:26;;;;;;;14.48;9.13;;;;;;;15.16;100.00;97515.28;18231600;32;20066;-61
2022/10/20 21:42:29;;;;;;;13.48;8.45;;;;;;;15.30;100.00;97525.38;18231938;32;20050;-61
2022/10/20 21:52:32;;;;;;;15.55;10.45;;;;;;;15.31;100.00;97518.81;18231155;32;20058;-61
2022/10/20 22:02:35;;;;;;;18.00;10.20;;;;;;;15.23;100.00;97520.31;18230471;32;20063;-61
2022/10/20 22:12:38;;;;;;;17.00;9.77;;;;;;;15.30;100.00;97511.75;18230611;32;20051;-61
2022/10/20 22:22:40;;;;;;;16.67;12.02;;;;;;;15.34;100.00;97516.25;18228642;32;20102;-61
2022/10/20 22:32:43;;;;;;;19.67;12.55;;;;;;;15.37;100.00;97502.03;18233949;32;20102;-61
2022/10/20 22:42:45;;;;;;;16.83;12.18;;;;;;;15.25;100.00;97505.28;18226147;32;20089;-61
2022/10/20 22:52:47;;;;;;;19.85;13.00;;;;;;;15.15;100.00;97502.75;18239268;32;20070;-62
2022/10/20 23:02:50;;;;;;;20.92;12.30;;;;;;;15.19;100.00;97498.31;18237736;32;20125;-61
2022/10/20 23:12:52;;;;;;;21.15;13.15;;;;;;;15.18;100.00;97482.28;18238530;32;20069;-61
2022/10/20 23:22:54;;;;;;;19.12;13.25;;;;;;;15.13;100.00;97485.94;18237841;32;20102;-61
2022/10/20 23:32:57;;;;;;;20.00;12.63;;;;;;;15.11;100.00;97466.34;18235974;32;20443;-61
2022/10/20 23:42:59;;;;;;;19.30;10.32;;;;;;;15.16;100.00;97477.16;18236278;32;20113;-62
2022/10/20 23:53:02;;;;;;;13.82;10.00;;;;;;;15.17;100.00;97467.06;18236410;32;20076;-61
